createdAt,value
2023-05-24T00:02:14.297Z,6.33
2023-05-24T00:04:43.020Z,6.50
2023-05-24T00:07:12.732Z,6.57
2023-05-24T00:09:41.018Z,6.47
2023-05-24T00:12:09.788Z,5.33
2023-05-24T00:14:38.416Z,6.00
2023-05-24T00:17:06.928Z,6.20
2023-05-24T00:19:38.512Z,6.90
2023-05-24T00:22:06.931Z,6.47
2023-05-24T00:24:35.329Z,6.50
2023-05-24T00:27:03.689Z,6.80
2023-05-24T00:29:32.426Z,7.63
2023-05-24T00:32:00.868Z,6.77
2023-05-24T00:34:31.262Z,6.73
2023-05-24T00:37:01.008Z,6.53
2023-05-24T00:39:29.277Z,6.73
2023-05-24T00:41:57.592Z,6.63
2023-05-24T00:44:25.909Z,6.70
2023-05-24T00:46:54.315Z,6.40
2023-05-24T00:49:24.399Z,6.93
2023-05-24T00:51:54.128Z,6.00
2023-05-24T00:54:26.392Z,6.40
2023-05-24T00:56:56.204Z,7.97
2023-05-24T00:59:25.353Z,7.40
2023-05-24T01:01:55.698Z,6.87
2023-05-24T01:04:24.319Z,7.77
2023-05-24T01:07:04.355Z,7.40
2023-05-24T01:09:42.671Z,7.07
2023-05-24T01:12:21.363Z,7.37
2023-05-24T01:14:59.811Z,6.90
2023-05-24T01:17:34.293Z,7.70
2023-05-24T01:20:08.968Z,7.10
2023-05-24T01:23:13.727Z,6.97
2023-05-24T01:26:07.446Z,8.13
2023-05-24T01:28:37.818Z,7.00
2023-05-24T01:31:07.012Z,8.30
2023-05-24T01:33:35.519Z,6.37
2023-05-24T01:36:03.872Z,7.10
2023-05-24T01:38:32.191Z,8.40
2023-05-24T01:41:07.038Z,7.30
2023-05-24T01:43:42.238Z,6.90
2023-05-24T01:46:19.511Z,7.07
2023-05-24T01:48:56.731Z,8.60
2023-05-24T01:51:27.831Z,8.10
2023-05-24T01:53:59.799Z,8.47
2023-05-24T01:56:32.211Z,9.63
2023-05-24T01:59:03.878Z,9.43
2023-05-24T02:01:33.379Z,9.10
2023-05-24T02:04:01.833Z,8.67
2023-05-24T02:06:30.211Z,7.97
2023-05-24T02:08:58.719Z,8.70
2023-05-24T02:11:27.789Z,7.93
2023-05-24T02:13:56.065Z,9.30
2023-05-24T02:16:27.080Z,8.07
2023-05-24T02:18:55.659Z,8.90
2023-05-24T02:21:24.498Z,8.50
2023-05-24T02:23:52.825Z,8.30
2023-05-24T02:26:21.268Z,7.50
2023-05-24T02:28:49.596Z,8.50
2023-05-24T02:31:18.627Z,7.50
2023-05-24T02:33:48.485Z,7.33
2023-05-24T02:36:16.882Z,7.53
2023-05-24T02:38:45.411Z,7.33
2023-05-24T02:41:17.990Z,8.03
2023-05-24T02:43:46.327Z,8.67
2023-05-24T02:46:15.049Z,7.70
2023-05-24T02:48:43.389Z,8.20
2023-05-24T02:51:13.238Z,7.93
2023-05-24T02:53:43.621Z,7.43
2023-05-24T02:56:13.902Z,7.60
2023-05-24T02:58:42.275Z,6.83
2023-05-24T03:01:10.589Z,7.60
2023-05-24T03:03:38.997Z,9.13
2023-05-24T03:06:08.368Z,7.60
2023-05-24T03:08:38.208Z,7.20
2023-05-24T03:11:06.810Z,8.63
2023-05-24T03:13:35.135Z,8.33
2023-05-24T03:16:03.518Z,7.43
2023-05-24T03:18:31.975Z,8.57
2023-05-24T03:21:00.296Z,7.70
2023-05-24T03:23:28.644Z,8.80
2023-05-24T03:25:58.514Z,7.37
2023-05-24T03:28:27.642Z,7.47
2023-05-24T03:30:55.997Z,7.77
2023-05-24T03:33:24.287Z,7.90
2023-05-24T03:35:52.694Z,7.20
2023-05-24T03:38:20.972Z,8.63
2023-05-24T03:40:49.205Z,7.53
2023-05-24T03:43:20.428Z,8.03
2023-05-24T03:45:48.957Z,8.97
2023-05-24T03:48:17.280Z,7.67
2023-05-24T03:50:45.696Z,7.60
2023-05-24T03:53:14.375Z,8.00
2023-05-24T03:55:42.774Z,7.60
2023-05-24T03:58:12.734Z,7.33
2023-05-24T04:00:42.822Z,7.40
2023-05-24T04:03:12.339Z,8.03
2023-05-24T04:05:40.832Z,8.30
2023-05-24T04:08:09.211Z,7.27
2023-05-24T04:10:37.667Z,8.10
2023-05-24T04:13:05.931Z,7.97
2023-05-24T04:15:34.255Z,7.97
2023-05-24T04:18:03.972Z,8.63
2023-05-24T04:20:32.655Z,8.70
2023-05-24T04:23:01.067Z,8.87
2023-05-24T04:25:29.755Z,9.40
2023-05-24T04:27:58.408Z,9.20
2023-05-24T04:30:30.217Z,7.90
2023-05-24T04:32:58.567Z,8.10
2023-05-24T04:35:28.425Z,8.97
2023-05-24T04:37:57.751Z,8.30
2023-05-24T04:40:26.268Z,8.20
2023-05-24T04:42:54.509Z,8.13
2023-05-24T04:45:23.008Z,7.87
2023-05-24T04:47:51.314Z,6.83
2023-05-24T04:50:19.839Z,6.63
2023-05-24T04:52:49.783Z,6.80
2023-05-24T04:55:18.119Z,6.97
2023-05-24T04:57:46.423Z,10.87
2023-05-24T05:00:15.664Z,12.03
2023-05-24T05:02:44.140Z,11.57
2023-05-24T05:05:12.788Z,9.77
2023-05-24T05:07:41.103Z,6.27
2023-05-24T05:10:11.194Z,5.83
2023-05-24T05:12:40.059Z,5.83
2023-05-24T05:15:10.095Z,5.60
2023-05-24T05:17:38.609Z,6.00
2023-05-24T05:20:08.268Z,6.87
2023-05-24T05:22:36.739Z,5.90
2023-05-24T05:25:05.366Z,11.90
2023-05-24T05:27:35.139Z,6.60
2023-05-24T05:30:03.626Z,5.60
2023-05-24T05:32:32.009Z,15.60
2023-05-24T05:35:00.496Z,20.33
2023-05-24T05:37:29.983Z,18.10
2023-05-24T05:39:58.452Z,14.90
2023-05-24T05:42:26.806Z,15.00
2023-05-24T05:44:56.672Z,16.03
2023-05-24T05:47:25.004Z,14.37
2023-05-24T05:49:53.310Z,13.03
2023-05-24T05:52:21.776Z,14.07
2023-05-24T05:54:50.065Z,14.48
2023-05-24T05:57:24.258Z,13.57
2023-05-24T05:59:52.849Z,15.30
2023-05-24T06:02:23.167Z,13.80
2023-05-24T06:04:51.985Z,14.95
2023-05-24T06:07:20.347Z,15.35
2023-05-24T06:09:48.683Z,15.53
2023-05-24T06:12:18.384Z,15.20
2023-05-24T06:14:48.403Z,14.13
2023-05-24T06:17:16.844Z,15.60
2023-05-24T06:19:47.012Z,15.50
2023-05-24T06:22:15.256Z,14.53
2023-05-24T06:24:43.933Z,16.77
2023-05-24T06:27:12.374Z,15.27
2023-05-24T06:29:41.070Z,16.87
2023-05-24T06:32:09.468Z,17.80
2023-05-24T06:34:44.463Z,16.50
2023-05-24T06:37:15.902Z,16.60
2023-05-24T06:39:44.212Z,15.47
2023-05-24T06:42:12.504Z,16.00
2023-05-24T06:44:40.926Z,15.80
2023-05-24T06:47:09.586Z,15.17
2023-05-24T06:49:38.252Z,12.87
2023-05-24T06:52:08.507Z,12.43
2023-05-24T06:54:38.241Z,13.10
2023-05-24T06:57:06.890Z,11.37
2023-05-24T06:59:36.281Z,11.70
2023-05-24T07:02:04.975Z,11.10
2023-05-24T07:04:33.690Z,11.30
2023-05-24T07:07:03.140Z,12.30
2023-05-24T07:09:31.775Z,12.47
2023-05-24T07:12:02.684Z,13.17
2023-05-24T07:14:30.971Z,13.70
2023-05-24T07:17:00.076Z,12.07
2023-05-24T07:19:29.805Z,12.43
2023-05-24T07:21:58.592Z,12.60
2023-05-24T07:24:26.889Z,12.70
2023-05-24T07:26:56.912Z,11.20
2023-05-24T07:29:27.168Z,11.70
2023-05-24T07:31:58.178Z,11.27
2023-05-24T07:34:28.111Z,11.10
2023-05-24T07:36:56.864Z,12.50
2023-05-24T07:39:25.388Z,12.60
2023-05-24T07:41:53.845Z,15.00
2023-05-24T07:44:22.400Z,14.43
2023-05-24T07:46:52.269Z,14.03
2023-05-24T07:49:20.779Z,15.23
2023-05-24T07:51:49.394Z,15.40
2023-05-24T07:54:17.819Z,14.73
2023-05-24T07:56:46.159Z,16.13
2023-05-24T07:59:14.444Z,14.50
2023-05-24T08:01:42.916Z,15.40
2023-05-24T08:04:12.609Z,15.23
2023-05-24T08:06:41.051Z,17.53
2023-05-24T08:09:10.307Z,15.70
2023-05-24T08:11:38.775Z,12.90
2023-05-24T08:14:07.112Z,14.23
2023-05-24T08:16:35.474Z,15.20
2023-05-24T08:19:03.816Z,15.80
2023-05-24T08:21:33.963Z,16.57
2023-05-24T08:24:02.287Z,14.50
2023-05-24T08:26:30.620Z,14.97
2023-05-24T08:28:59.190Z,16.23
2023-05-24T08:31:27.627Z,15.40
2023-05-24T08:33:57.805Z,15.57
2023-05-24T08:36:26.869Z,13.57
2023-05-24T08:38:56.653Z,15.90
2023-05-24T08:41:24.941Z,16.87
2023-05-24T08:43:54.519Z,14.60
2023-05-24T08:46:23.611Z,13.30
2023-05-24T08:48:53.636Z,11.40
2023-05-24T08:51:22.079Z,17.00
2023-05-24T08:53:53.145Z,15.93
2023-05-24T08:56:24.232Z,19.00
2023-05-24T08:58:52.841Z,20.73
2023-05-24T09:01:21.719Z,19.10
2023-05-24T09:03:51.867Z,16.00
2023-05-24T09:06:20.982Z,17.67
2023-05-24T09:08:52.536Z,17.37
2023-05-24T09:11:23.009Z,18.33
2023-05-24T09:13:52.040Z,14.10
2023-05-24T09:16:20.515Z,16.83
2023-05-24T09:18:49.036Z,16.40
2023-05-24T09:21:17.826Z,17.87
2023-05-24T09:23:46.753Z,16.43
2023-05-24T09:26:15.082Z,17.77
2023-05-24T09:28:44.816Z,16.70
2023-05-24T09:31:13.989Z,14.27
2023-05-24T09:33:42.397Z,17.43
2023-05-24T09:36:11.887Z,17.60
2023-05-24T09:38:40.210Z,17.63
2023-05-24T09:41:11.062Z,18.47
2023-05-24T09:43:51.017Z,16.90
2023-05-24T09:46:20.130Z,16.53
2023-05-24T09:48:58.965Z,15.63
2023-05-24T09:51:27.891Z,14.90
2023-05-24T09:53:59.135Z,15.17
2023-05-24T09:56:28.197Z,16.57
2023-05-24T09:58:58.149Z,13.27
2023-05-24T10:01:27.058Z,13.87
2023-05-24T10:03:56.321Z,13.60
2023-05-24T10:06:25.221Z,13.07
2023-05-24T10:08:55.938Z,14.53
2023-05-24T10:11:24.261Z,12.43
2023-05-24T10:13:52.697Z,11.87
2023-05-24T10:16:22.595Z,10.20
2023-05-24T10:18:51.833Z,10.60
2023-05-24T10:21:23.497Z,10.53
2023-05-24T10:23:58.755Z,9.27
2023-05-24T10:26:30.944Z,8.70
2023-05-24T10:29:06.051Z,7.30
2023-05-24T10:31:39.315Z,7.90
2023-05-24T10:34:09.355Z,7.80
2023-05-24T10:36:40.687Z,7.70
2023-05-24T10:39:12.533Z,7.93
2023-05-24T10:41:42.226Z,8.10
2023-05-24T10:44:14.567Z,8.20
2023-05-24T10:47:19.694Z,7.23
2023-05-24T10:49:53.227Z,7.67
2023-05-24T10:52:22.128Z,6.93
2023-05-24T10:55:09.855Z,6.73
2023-05-24T10:57:39.479Z,7.43
2023-05-24T11:03:04.351Z,7.00
2023-05-24T11:05:53.212Z,6.60
2023-05-24T11:08:27.650Z,7.20
2023-05-24T11:11:23.430Z,7.03
2023-05-24T11:13:58.413Z,6.70
2023-05-24T11:16:39.494Z,7.13
2023-05-24T11:19:18.527Z,6.13
2023-05-24T11:21:49.731Z,6.33
2023-05-24T11:24:19.242Z,6.47
2023-05-24T11:26:48.225Z,6.10
2023-05-24T11:29:21.164Z,5.80
2023-05-24T11:31:50.821Z,5.90
2023-05-24T11:34:19.368Z,5.37
2023-05-24T11:36:50.276Z,5.30
2023-05-24T11:39:18.765Z,5.30
2023-05-24T11:41:49.004Z,5.23
2023-05-24T11:44:19.418Z,5.60
2023-05-24T11:46:48.368Z,6.47
2023-05-24T11:49:18.580Z,6.03
2023-05-24T11:51:48.380Z,5.90
2023-05-24T11:54:16.727Z,6.10
2023-05-24T11:56:45.083Z,5.37
2023-05-24T11:59:17.784Z,6.17
2023-05-24T12:01:46.426Z,5.63
2023-05-24T12:04:14.977Z,7.00
2023-05-24T12:06:45.063Z,6.20
2023-05-24T12:09:18.769Z,6.60
2023-05-24T12:11:50.227Z,7.43
2023-05-24T12:14:20.161Z,8.50
2023-05-24T12:16:50.256Z,8.90
2023-05-24T12:19:32.424Z,10.03
2023-05-24T12:22:02.752Z,8.97
2023-05-24T12:24:33.383Z,8.53
2023-05-24T12:27:03.656Z,9.87
2023-05-24T12:29:36.746Z,9.53
2023-05-24T12:32:06.719Z,9.63
2023-05-24T12:34:35.188Z,9.13
2023-05-24T12:37:04.359Z,10.03
2023-05-24T12:39:37.990Z,11.00
2023-05-24T12:42:06.679Z,11.00
2023-05-24T12:44:37.761Z,11.13
2023-05-24T12:47:08.986Z,11.20
2023-05-24T12:49:37.861Z,10.87
2023-05-24T12:52:07.140Z,10.37
2023-05-24T12:54:37.132Z,11.40
2023-05-24T12:57:05.851Z,10.17
2023-05-24T12:59:35.513Z,10.90
2023-05-24T13:02:03.991Z,10.60
2023-05-24T13:04:34.023Z,10.60
2023-05-24T13:07:03.383Z,9.50
2023-05-24T13:09:31.843Z,10.33
2023-05-24T13:12:01.819Z,9.67
2023-05-24T13:14:30.165Z,9.60
2023-05-24T13:16:58.621Z,8.60
2023-05-24T13:19:27.103Z,9.80
2023-05-24T13:21:55.672Z,8.67
2023-05-24T13:24:24.422Z,9.80
2023-05-24T13:26:54.829Z,8.90
2023-05-24T13:31:56.606Z,7.43
2023-05-24T13:34:25.961Z,7.03
2023-05-24T13:36:55.347Z,7.20
2023-05-24T13:39:24.041Z,6.90
2023-05-24T13:41:52.395Z,6.20
2023-05-24T13:44:21.515Z,6.33
2023-05-24T13:46:51.337Z,6.83
2023-05-24T13:49:19.792Z,6.47
2023-05-24T13:51:48.215Z,6.43
2023-05-24T13:54:16.835Z,6.50
2023-05-24T13:56:45.446Z,5.90
2023-05-24T13:59:13.717Z,6.00
2023-05-24T14:01:42.273Z,5.53
2023-05-24T14:04:12.189Z,6.17
2023-05-24T14:06:40.538Z,6.47
2023-05-24T14:09:09.189Z,6.90
2023-05-24T14:11:37.672Z,6.43
2023-05-24T14:16:37.600Z,6.00
2023-05-24T14:19:06.422Z,6.43
2023-05-24T14:21:36.529Z,6.37
2023-05-24T14:24:05.158Z,5.83
2023-05-24T14:26:33.497Z,6.17
2023-05-24T14:29:01.793Z,5.67
2023-05-24T14:31:30.174Z,6.17
2023-05-24T14:33:58.778Z,5.73
2023-05-24T14:36:27.121Z,6.23
2023-05-24T14:38:56.849Z,6.10
2023-05-24T14:41:25.159Z,6.67
2023-05-24T14:43:53.659Z,7.10
2023-05-24T14:46:21.961Z,6.40
2023-05-24T14:48:50.322Z,7.00
2023-05-24T14:51:18.797Z,6.43
2023-05-24T14:53:47.141Z,6.53
2023-05-24T14:56:17.239Z,6.60
2023-05-24T14:58:45.757Z,7.60
2023-05-24T15:01:14.263Z,7.60
2023-05-24T15:03:44.263Z,6.57
2023-05-24T15:06:13.684Z,6.57
2023-05-24T15:08:41.965Z,6.53
2023-05-24T15:11:10.218Z,7.70
2023-05-24T15:13:40.062Z,8.13
2023-05-24T15:16:08.754Z,6.10
2023-05-24T15:18:37.034Z,6.70
2023-05-24T15:21:05.419Z,7.20
2023-05-24T15:23:33.788Z,6.30
2023-05-24T15:26:02.277Z,6.80
2023-05-24T15:28:30.820Z,6.27
2023-05-24T15:31:02.081Z,6.90
2023-05-24T15:33:30.721Z,6.67
2023-05-24T15:35:59.191Z,6.73
2023-05-24T15:38:27.531Z,7.17
2023-05-24T15:40:55.826Z,7.13
2023-05-24T15:43:24.539Z,7.10
2023-05-24T15:45:53.722Z,6.63
2023-05-24T15:48:24.084Z,6.90
2023-05-24T15:51:43.001Z,6.53
2023-05-24T15:53:40.802Z,6.40
2023-05-24T15:56:10.335Z,6.10
2023-05-24T15:58:38.731Z,7.00
2023-05-24T16:01:07.483Z,6.97
2023-05-24T16:03:38.265Z,6.33
2023-05-24T16:06:07.102Z,6.37
2023-05-24T16:08:35.493Z,6.90
2023-05-24T16:11:08.334Z,6.90
2023-05-24T16:13:36.796Z,6.57
2023-05-24T16:16:05.232Z,7.70
2023-05-24T16:18:35.490Z,7.10
2023-05-24T16:21:05.523Z,6.50
2023-05-24T16:23:34.120Z,6.70
2023-05-24T16:26:02.449Z,6.27
2023-05-24T16:28:30.812Z,7.30
2023-05-24T16:31:02.945Z,6.60
2023-05-24T16:33:31.380Z,7.37
2023-05-24T16:36:03.428Z,7.43
2023-05-24T16:38:33.920Z,7.73
2023-05-24T16:41:02.266Z,7.17
2023-05-24T16:43:30.735Z,6.83
2023-05-24T16:45:59.182Z,7.60
2023-05-24T16:48:31.547Z,6.93
2023-05-24T16:51:00.185Z,7.17
2023-05-24T16:53:29.051Z,7.13
2023-05-24T16:55:58.958Z,6.53
2023-05-24T16:58:29.019Z,6.43
2023-05-24T17:00:57.486Z,6.70
2023-05-24T17:03:29.237Z,6.60
2023-05-24T17:06:03.556Z,7.20
2023-05-24T17:08:34.376Z,7.20
2023-05-24T17:11:04.730Z,7.17
2023-05-24T17:13:33.468Z,6.90
2023-05-24T17:16:01.875Z,6.20
2023-05-24T17:18:30.261Z,6.70
2023-05-24T17:20:59.164Z,6.77
2023-05-24T17:23:28.399Z,6.77
2023-05-24T17:25:56.775Z,7.13
2023-05-24T17:28:28.404Z,7.20
2023-05-24T17:30:56.737Z,7.50
2023-05-24T17:33:26.827Z,7.80
2023-05-24T17:35:56.672Z,7.13
2023-05-24T17:38:25.882Z,6.83
2023-05-24T17:40:59.507Z,7.30
2023-05-24T17:43:32.623Z,7.47
2023-05-24T17:46:06.568Z,7.70
2023-05-24T17:48:36.915Z,7.20
2023-05-24T17:51:07.072Z,7.13
2023-05-24T17:53:36.113Z,8.47
2023-05-24T17:56:05.348Z,10.57
2023-05-24T17:58:37.364Z,10.70
2023-05-24T18:01:07.500Z,10.50
2023-05-24T18:03:37.720Z,10.60
2023-05-24T18:06:07.542Z,12.13
2023-05-24T18:08:38.527Z,10.70
2023-05-24T18:11:09.627Z,10.23
2023-05-24T18:13:40.224Z,10.73
2023-05-24T18:16:09.824Z,9.97
2023-05-24T18:18:38.947Z,9.70
2023-05-24T18:21:07.759Z,10.77
2023-05-24T18:23:38.142Z,9.50
2023-05-24T18:26:08.567Z,9.80
2023-05-24T18:28:38.220Z,9.00
2023-05-24T18:31:10.534Z,9.80
2023-05-24T18:33:39.325Z,9.00
2023-05-24T18:36:08.454Z,8.30
2023-05-24T18:38:37.708Z,8.20
2023-05-24T18:41:09.469Z,7.97
2023-05-24T18:43:37.855Z,8.70
2023-05-24T18:46:07.688Z,8.10
2023-05-24T18:48:36.085Z,8.30
2023-05-24T18:51:04.671Z,9.70
2023-05-24T18:53:33.056Z,9.97
2023-05-24T18:56:01.580Z,9.10
2023-05-24T18:58:30.024Z,7.80
2023-05-24T19:00:58.632Z,9.20
2023-05-24T19:03:28.570Z,7.93
2023-05-24T19:05:57.030Z,8.23
2023-05-24T19:08:26.148Z,8.10
2023-05-24T19:10:54.556Z,9.20
2023-05-24T19:13:23.121Z,9.50
2023-05-24T19:15:51.461Z,9.00
2023-05-24T19:18:19.794Z,7.07
2023-05-24T19:20:49.975Z,7.83
2023-05-24T19:23:18.392Z,7.00
2023-05-24T19:25:50.239Z,7.60
2023-05-24T19:28:18.821Z,7.00
2023-05-24T19:30:47.123Z,7.00
2023-05-24T19:33:15.547Z,7.50
2023-05-24T19:35:44.281Z,7.57
2023-05-24T19:38:17.980Z,6.97
2023-05-24T19:40:46.356Z,6.87
2023-05-24T19:43:14.636Z,7.30
2023-05-24T19:45:43.065Z,8.67
2023-05-24T19:48:11.569Z,8.30
2023-05-24T19:50:40.776Z,8.30
2023-05-24T19:53:09.176Z,9.03
2023-05-24T19:55:38.939Z,8.90
2023-05-24T19:58:07.281Z,7.90
2023-05-24T20:00:35.832Z,8.20
2023-05-24T20:03:04.261Z,8.10
2023-05-24T20:05:32.600Z,8.77
2023-05-24T20:08:01.317Z,9.27
2023-05-24T20:10:32.063Z,9.33
2023-05-24T20:13:01.890Z,10.83
2023-05-24T20:15:30.561Z,10.10
2023-05-24T20:17:59.437Z,10.87
2023-05-24T20:20:27.885Z,11.07
2023-05-24T20:22:56.270Z,11.37
2023-05-24T20:25:25.113Z,10.93
2023-05-24T20:27:53.363Z,11.40
2023-05-24T20:30:23.174Z,11.03
2023-05-24T20:32:51.580Z,11.30
2023-05-24T20:35:20.720Z,12.00
2023-05-24T20:37:49.080Z,12.63
2023-05-24T20:40:22.802Z,13.20
2023-05-24T20:42:51.145Z,12.50
2023-05-24T20:45:19.937Z,12.60
2023-05-24T20:47:49.907Z,11.93
2023-05-24T20:50:18.554Z,12.17
2023-05-24T20:52:46.964Z,11.90
2023-05-24T20:55:16.455Z,12.57
2023-05-24T20:57:44.980Z,13.53
2023-05-24T21:00:14.324Z,12.40
2023-05-24T21:02:42.751Z,13.07
2023-05-24T21:05:12.735Z,12.23
2023-05-24T21:07:41.332Z,12.50
2023-05-24T21:10:11.239Z,14.40
2023-05-24T21:12:39.548Z,12.00
2023-05-24T21:15:11.904Z,11.83
2023-05-24T21:17:40.417Z,12.43
2023-05-24T21:20:09.479Z,11.57
2023-05-24T21:22:39.404Z,12.63
2023-05-24T21:25:09.093Z,11.30
2023-05-24T21:27:37.502Z,12.93
2023-05-24T21:30:06.419Z,12.10
2023-05-24T21:32:34.695Z,12.80
2023-05-24T21:35:03.031Z,13.47
2023-05-24T21:37:31.390Z,11.87
2023-05-24T21:40:01.042Z,10.63
2023-05-24T21:42:29.369Z,10.67
2023-05-24T21:44:57.826Z,11.70
2023-05-24T21:47:26.264Z,9.23
2023-05-24T21:49:55.185Z,11.20
2023-05-24T21:52:24.721Z,10.20
2023-05-24T21:54:52.989Z,13.20
2023-05-24T21:57:24.883Z,12.50
2023-05-24T21:59:54.439Z,13.43
2023-05-24T22:02:22.814Z,12.30
2023-05-24T22:04:51.291Z,12.20
2023-05-24T22:07:19.689Z,12.60
2023-05-24T22:09:48.049Z,11.53
2023-05-24T22:12:16.286Z,12.10
2023-05-24T22:14:46.288Z,11.33
2023-05-24T22:17:15.018Z,11.20
2023-05-24T22:19:44.130Z,10.73
2023-05-24T22:22:12.603Z,11.80
2023-05-24T22:24:40.960Z,10.93
2023-05-24T22:27:13.995Z,12.37
2023-05-24T22:29:42.372Z,12.00
2023-05-24T22:32:12.249Z,13.13
2023-05-24T22:34:40.824Z,11.77
2023-05-24T22:37:09.259Z,12.43
2023-05-24T22:39:37.652Z,11.87
2023-05-24T22:42:06.454Z,11.97
2023-05-24T22:44:34.962Z,13.07
2023-05-24T22:47:03.502Z,12.30
2023-05-24T22:49:34.297Z,12.50
2023-05-24T22:52:02.736Z,12.17
2023-05-24T22:54:31.021Z,10.60
2023-05-24T22:56:59.314Z,9.20
2023-05-24T22:59:27.773Z,8.80
2023-05-24T23:01:56.289Z,8.13
2023-05-24T23:04:27.727Z,7.77
2023-05-24T23:06:57.882Z,7.70
2023-05-24T23:09:34.207Z,7.67
2023-05-24T23:12:02.953Z,7.63
2023-05-24T23:14:31.584Z,7.60
2023-05-24T23:17:02.665Z,7.00
2023-05-24T23:19:31.329Z,6.80
2023-05-24T23:22:03.510Z,6.60
2023-05-24T23:24:32.045Z,6.07
2023-05-24T23:27:00.941Z,5.20
2023-05-24T23:29:29.241Z,5.17
2023-05-24T23:31:57.556Z,6.00
2023-05-24T23:34:25.933Z,5.93
2023-05-24T23:36:54.541Z,5.60
2023-05-24T23:39:24.254Z,5.30
2023-05-24T23:41:52.497Z,5.20
2023-05-24T23:44:23.617Z,5.77
2023-05-24T23:46:52.087Z,5.63
2023-05-24T23:49:21.123Z,5.00
2023-05-24T23:51:49.406Z,4.90
2023-05-24T23:54:19.172Z,6.13
2023-05-24T23:56:49.173Z,5.60
2023-05-24T23:59:17.718Z,5.57
